Time;durP1;ratioP1;P1;durP2;ratioP2;P2;SDS_P1;SDS_P2;PMS_P1;PMS_P2;Temp;Humidity;BMP_temperature;BMP_pressure;BME280_temperature;BME280_humidity;BME280_pressure;Samples;Min_cycle;Max_cycle;Signal;HPM_P1;HPM_P2
2024/02/04 00:00:14;;;;;;;3.27;2.17;;;;;;;;;;5107849;28;20208;-92
2024/02/04 00:02:41;;;;;;;34.50;16.77;;;;;;;;;;5108515;28;20245;-93
2024/02/04 00:05:09;;;;;;;15.57;9.13;;;;;;;;;;5106442;28;20208;-92
2024/02/04 00:07:36;;;;;;;5.97;5.37;;;;;;;;;;5108916;28;20242;-92
2024/02/04 00:10:03;;;;;;;3.53;2.93;;;;;;;;;;5114612;28;20264;-92
2024/02/04 00:12:30;;;;;;;3.13;2.53;;;;;;;;;;5113044;28;20199;-92
2024/02/04 00:14:56;;;;;;;3.73;3.17;;;;;;;;;;5102757;28;20212;-92
2024/02/04 00:17:23;;;;;;;4.17;2.80;;;;;;;;;;5114453;28;20229;-92
2024/02/04 00:19:50;;;;;;;4.50;3.23;;;;;;;;;;5114554;28;20214;-91
2024/02/04 00:22:20;;;;;;;3.77;3.37;;;;;;;;;;5096501;28;20215;-92
2024/02/04 00:24:46;;;;;;;4.83;3.73;;;;;;;;;;5104832;28;20204;-91
2024/02/04 00:27:13;;;;;;;4.87;3.13;;;;;;;;;;5110771;28;20227;-91
2024/02/04 00:29:40;;;;;;;3.93;3.43;;;;;;;;;;5104308;28;20273;-92
2024/02/04 00:32:07;;;;;;;3.33;3.03;;;;;;;;;;5110107;28;20762;-91
2024/02/04 00:34:34;;;;;;;4.33;3.00;;;;;;;;;;5113959;28;20215;-93
2024/02/04 00:37:01;;;;;;;4.50;4.10;;;;;;;;;;5114235;28;20200;-92
2024/02/04 00:39:30;;;;;;;5.67;3.93;;;;;;;;;;5103047;28;20295;-92
2024/02/04 00:41:56;;;;;;;39.77;20.47;;;;;;;;;;5106912;28;20208;-92
2024/02/04 00:44:23;;;;;;;48.63;22.20;;;;;;;;;;5093477;28;20212;-91
2024/02/04 00:46:50;;;;;;;20.20;12.33;;;;;;;;;;5093768;28;20679;-92
2024/02/04 00:49:17;;;;;;;6.47;5.43;;;;;;;;;;5093261;28;20212;-92
2024/02/04 00:51:44;;;;;;;6.17;5.23;;;;;;;;;;5111786;28;20207;-92
2024/02/04 00:54:11;;;;;;;5.10;4.10;;;;;;;;;;5113941;28;20291;-92
2024/02/04 00:56:39;;;;;;;23.37;13.57;;;;;;;;;;5113734;28;20203;-92
2024/02/04 00:59:06;;;;;;;6.40;5.60;;;;;;;;;;5100781;28;20208;-92
2024/02/04 01:01:33;;;;;;;4.70;3.70;;;;;;;;;;5113158;28;20204;-92
2024/02/04 01:04:00;;;;;;;4.20;3.80;;;;;;;;;;5100425;28;20208;-92
2024/02/04 01:06:27;;;;;;;6.00;4.20;;;;;;;;;;5113404;28;20577;-92
2024/02/04 01:08:54;;;;;;;7.17;4.37;;;;;;;;;;5113578;28;20231;-92
2024/02/04 01:11:21;;;;;;;7.93;5.67;;;;;;;;;;5093164;28;20277;-92
2024/02/04 01:13:49;;;;;;;12.80;8.07;;;;;;;;;;5106956;28;20214;-92
2024/02/04 01:16:16;;;;;;;7.27;5.37;;;;;;;;;;5105375;28;20207;-92
2024/02/04 01:18:43;;;;;;;3.83;3.50;;;;;;;;;;5106360;28;20207;-92
2024/02/04 01:21:10;;;;;;;4.50;4.10;;;;;;;;;;5092628;28;20258;-92
2024/02/04 01:23:36;;;;;;;4.27;3.83;;;;;;;;;;5093476;28;20208;-93
2024/02/04 01:26:04;;;;;;;5.33;4.50;;;;;;;;;;5100175;28;20207;-92
2024/02/04 01:28:31;;;;;;;5.03;4.53;;;;;;;;;;5112863;28;20227;-91
2024/02/04 01:31:01;;;;;;;5.30;4.23;;;;;;;;;;5105969;28;20654;-92
2024/02/04 01:33:29;;;;;;;6.43;5.43;;;;;;;;;;5107125;28;20665;-91
2024/02/04 01:35:56;;;;;;;10.03;6.30;;;;;;;;;;5101614;28;20208;-91
2024/02/04 01:38:22;;;;;;;6.63;5.40;;;;;;;;;;5112817;28;20207;-91
2024/02/04 01:40:52;;;;;;;5.63;4.67;;;;;;;;;;5104258;28;20204;-90
2024/02/04 01:43:21;;;;;;;4.70;4.20;;;;;;;;;;5106406;28;20207;-91
2024/02/04 01:45:47;;;;;;;5.40;4.13;;;;;;;;;;5101929;28;20290;-90
2024/02/04 01:48:16;;;;;;;4.53;3.57;;;;;;;;;;5112718;28;20253;-91
2024/02/04 01:50:43;;;;;;;4.07;3.70;;;;;;;;;;5103163;28;20212;-91
2024/02/04 01:53:10;;;;;;;3.70;3.40;;;;;;;;;;5093091;28;20689;-91
2024/02/04 01:55:37;;;;;;;4.60;4.13;;;;;;;;;;5102790;28;20228;-90
2024/02/04 01:58:04;;;;;;;4.57;4.10;;;;;;;;;;5112866;28;20203;-91
2024/02/04 02:00:31;;;;;;;4.40;4.00;;;;;;;;;;5112942;28;20260;-91
2024/02/04 02:03:01;;;;;;;3.90;3.43;;;;;;;;;;5099518;28;20219;-91
2024/02/04 02:05:30;;;;;;;4.03;3.40;;;;;;;;;;5112671;28;20696;-91
2024/02/04 02:07:57;;;;;;;3.47;3.07;;;;;;;;;;5112438;28;20295;-90
2024/02/04 02:10:24;;;;;;;3.33;3.03;;;;;;;;;;5101012;28;20205;-91
2024/02/04 02:12:55;;;;;;;3.47;3.20;;;;;;;;;;5092279;28;20671;-90
2024/02/04 02:15:23;;;;;;;3.73;3.37;;;;;;;;;;5105535;28;20203;-91
2024/02/04 02:17:54;;;;;;;4.00;3.60;;;;;;;;;;5112751;28;20211;-91
2024/02/04 02:20:25;;;;;;;4.40;3.60;;;;;;;;;;5113030;28;20204;-91
2024/02/04 02:23:02;;;;;;;9.77;7.67;;;;;;;;;;5105198;28;20200;-90
2024/02/04 02:25:32;;;;;;;8.77;7.27;;;;;;;;;;5108443;28;20207;-90
2024/02/04 02:28:02;;;;;;;5.10;4.60;;;;;;;;;;5106065;28;20667;-90
2024/02/04 02:30:29;;;;;;;4.20;3.80;;;;;;;;;;5109688;28;20232;-90
2024/02/04 02:32:56;;;;;;;6.80;6.10;;;;;;;;;;5106443;28;20207;-90
2024/02/04 02:35:23;;;;;;;4.60;4.17;;;;;;;;;;5116710;28;20265;-90
2024/02/04 02:38:03;;;;;;;5.00;4.50;;;;;;;;;;5116608;28;20203;-90
2024/02/04 02:40:35;;;;;;;10.07;8.43;;;;;;;;;;5102846;28;20211;-90
2024/02/04 02:43:03;;;;;;;11.50;8.57;;;;;;;;;;5115968;28;20620;-91
2024/02/04 02:45:31;;;;;;;15.73;10.77;;;;;;;;;;5103587;28;20234;-90
2024/02/04 02:48:00;;;;;;;16.50;11.30;;;;;;;;;;5115739;28;20238;-91
2024/02/04 02:50:26;;;;;;;38.37;21.70;;;;;;;;;;5103847;28;20211;-90
2024/02/04 02:52:53;;;;;;;15.37;10.13;;;;;;;;;;5115090;28;20215;-91
2024/02/04 02:55:20;;;;;;;8.37;5.90;;;;;;;;;;5104364;28;20203;-91
2024/02/04 02:57:48;;;;;;;7.57;5.40;;;;;;;;;;5116168;28;20211;-91
2024/02/04 03:00:15;;;;;;;5.03;4.37;;;;;;;;;;5116149;28;20222;-91
2024/02/04 03:02:42;;;;;;;4.47;4.07;;;;;;;;;;5101641;28;20647;-92
2024/02/04 03:05:09;;;;;;;4.27;3.87;;;;;;;;;;5116004;28;20261;-90
2024/02/04 03:07:36;;;;;;;4.50;4.10;;;;;;;;;;5115538;28;20214;-91
2024/02/04 03:10:03;;;;;;;4.73;3.50;;;;;;;;;;5115116;28;20212;-90
2024/02/04 03:12:30;;;;;;;3.80;3.50;;;;;;;;;;5102221;28;20564;-90
2024/02/04 03:15:00;;;;;;;4.27;3.73;;;;;;;;;;5115767;28;20215;-90
2024/02/04 03:17:26;;;;;;;4.37;3.40;;;;;;;;;;5099079;28;20250;-91
2024/02/04 03:19:54;;;;;;;3.97;3.43;;;;;;;;;;5104763;28;20211;-91
2024/02/04 03:22:21;;;;;;;4.57;4.10;;;;;;;;;;5115356;28;20208;-91
2024/02/04 03:24:48;;;;;;;4.63;3.60;;;;;;;;;;5105435;28;20242;-90
2024/02/04 03:27:16;;;;;;;178.50;100.23;;;;;;;;;;5112062;28;20206;-91
2024/02/04 03:29:43;;;;;;;62.53;38.70;;;;;;;;;;5115466;28;20249;-91
2024/02/04 03:32:11;;;;;;;156.67;91.33;;;;;;;;;;5115457;28;20621;-91
2024/02/04 03:34:39;;;;;;;20.17;13.97;;;;;;;;;;5115248;28;20203;-90
2024/02/04 03:37:06;;;;;;;42.53;24.57;;;;;;;;;;5115424;28;20199;-90
2024/02/04 03:39:33;;;;;;;97.37;50.63;;;;;;;;;;5114798;28;20225;-90
2024/02/04 03:41:59;;;;;;;15.13;11.00;;;;;;;;;;5110149;28;20269;-90
2024/02/04 03:44:26;;;;;;;5.30;4.80;;;;;;;;;;5106734;28;20721;-90
2024/02/04 03:46:53;;;;;;;22.90;13.27;;;;;;;;;;5114888;28;20225;-90
2024/02/04 03:49:22;;;;;;;20.17;13.60;;;;;;;;;;5114993;28;20223;-91
2024/02/04 03:51:49;;;;;;;54.60;35.90;;;;;;;;;;5095912;28;20280;-91
2024/02/04 03:54:15;;;;;;;11.27;9.03;;;;;;;;;;5107296;28;20200;-91
2024/02/04 03:56:42;;;;;;;7.37;6.43;;;;;;;;;;5114790;28;20218;-91
2024/02/04 03:59:10;;;;;;;5.13;4.27;;;;;;;;;;5115020;28;20207;-90
2024/02/04 04:01:37;;;;;;;3.63;3.33;;;;;;;;;;5114366;28;20732;-91
2024/02/04 04:04:04;;;;;;;4.00;3.60;;;;;;;;;;5115056;28;20204;-91
2024/02/04 04:06:33;;;;;;;4.47;3.50;;;;;;;;;;5114976;28;20638;-90
2024/02/04 04:09:02;;;;;;;3.40;2.83;;;;;;;;;;5101575;28;20216;-90
2024/02/04 04:11:29;;;;;;;4.20;3.77;;;;;;;;;;5101939;28;20218;-91
2024/02/04 04:13:56;;;;;;;3.53;3.23;;;;;;;;;;5114331;28;20251;-88
2024/02/04 04:16:23;;;;;;;4.97;4.57;;;;;;;;;;5114363;28;20264;-89
2024/02/04 04:18:50;;;;;;;4.00;3.70;;;;;;;;;;5099883;28;20243;-88
2024/02/04 04:21:17;;;;;;;4.93;3.73;;;;;;;;;;5101207;28;20208;-89
2024/02/04 04:23:45;;;;;;;4.20;3.80;;;;;;;;;;5100541;28;20360;-89
2024/02/04 04:26:12;;;;;;;4.30;3.93;;;;;;;;;;5114478;28;20210;-89
2024/02/04 04:28:39;;;;;;;4.60;4.20;;;;;;;;;;5098406;28;20219;-90
2024/02/04 04:31:05;;;;;;;4.00;3.70;;;;;;;;;;5106241;28;20240;-90
2024/02/04 04:33:32;;;;;;;3.83;3.53;;;;;;;;;;5106250;28;20203;-88
2024/02/04 04:36:02;;;;;;;4.23;3.93;;;;;;;;;;5108293;28;20208;-88
2024/02/04 04:38:29;;;;;;;7.07;6.30;;;;;;;;;;5107292;28;20199;-90
2024/02/04 04:40:57;;;;;;;6.93;6.27;;;;;;;;;;5112036;28;20268;-89
2024/02/04 04:43:24;;;;;;;7.70;6.83;;;;;;;;;;5113682;28;20203;-89
2024/02/04 04:45:51;;;;;;;6.63;6.03;;;;;;;;;;5113500;28;20681;-89
2024/02/04 04:48:18;;;;;;;5.50;5.00;;;;;;;;;;5108243;28;20265;-90
2024/02/04 04:50:45;;;;;;;4.87;4.40;;;;;;;;;;5105271;28;20210;-89
2024/02/04 04:53:11;;;;;;;4.70;4.30;;;;;;;;;;5113713;28;20276;-89
2024/02/04 04:55:38;;;;;;;4.03;3.70;;;;;;;;;;5113765;28;20207;-89
2024/02/04 04:58:07;;;;;;;4.50;4.10;;;;;;;;;;5113736;28;20211;-89
2024/02/04 05:00:33;;;;;;;3.37;3.07;;;;;;;;;;5099771;28;20287;-89
2024/02/04 05:03:01;;;;;;;5.10;4.07;;;;;;;;;;5113397;28;20203;-88
2024/02/04 05:05:28;;;;;;;3.77;3.47;;;;;;;;;;5113607;28;20207;-89
2024/02/04 05:07:55;;;;;;;3.87;3.47;;;;;;;;;;5113824;28;20215;-89
2024/02/04 05:10:21;;;;;;;4.20;3.80;;;;;;;;;;5111164;28;20223;-89
2024/02/04 05:12:48;;;;;;;3.23;3.00;;;;;;;;;;5092980;28;20208;-87
2024/02/04 05:15:17;;;;;;;3.97;3.13;;;;;;;;;;5106673;28;20203;-83
2024/02/04 05:17:43;;;;;;;3.67;3.37;;;;;;;;;;5111870;28;20708;-83
2024/02/04 05:20:11;;;;;;;3.57;3.27;;;;;;;;;;5111868;28;20208;-84
2024/02/04 05:22:38;;;;;;;3.53;3.23;;;;;;;;;;5106357;28;20569;-85
2024/02/04 05:25:06;;;;;;;3.77;3.30;;;;;;;;;;5103852;28;20207;-84
2024/02/04 05:27:33;;;;;;;3.77;3.47;;;;;;;;;;5092253;28;20212;-83
2024/02/04 05:30:03;;;;;;;3.50;3.10;;;;;;;;;;5105875;28;20223;-84
2024/02/04 05:32:31;;;;;;;3.60;3.30;;;;;;;;;;5093866;28;20618;-83
2024/02/04 05:34:58;;;;;;;3.27;3.07;;;;;;;;;;5106050;28;20685;-84
2024/02/04 05:37:25;;;;;;;2.73;2.53;;;;;;;;;;5104592;28;20216;-84
2024/02/04 05:39:52;;;;;;;3.17;2.87;;;;;;;;;;5105078;28;20203;-84
2024/02/04 05:42:18;;;;;;;3.03;2.77;;;;;;;;;;5098765;28;20212;-84
2024/02/04 05:44:45;;;;;;;3.37;2.87;;;;;;;;;;5110896;28;20203;-84
2024/02/04 05:47:12;;;;;;;3.87;3.47;;;;;;;;;;5099067;28;20195;-84
2024/02/04 05:49:40;;;;;;;3.27;2.97;;;;;;;;;;5109644;28;20226;-83
2024/02/04 05:52:07;;;;;;;2.87;2.67;;;;;;;;;;5111559;28;20206;-84
2024/02/04 05:54:39;;;;;;;5.23;4.77;;;;;;;;;;5111192;28;20791;-84
2024/02/04 05:57:06;;;;;;;5.17;4.67;;;;;;;;;;5111684;28;20207;-84
2024/02/04 05:59:32;;;;;;;3.63;3.30;;;;;;;;;;5111435;28;20248;-83
2024/02/04 06:02:02;;;;;;;4.20;3.00;;;;;;;;;;5113514;28;20211;-83
2024/02/04 06:04:29;;;;;;;3.63;3.33;;;;;;;;;;5115958;28;20566;-84
2024/02/04 06:07:00;;;;;;;3.20;3.00;;;;;;;;;;5115542;28;20204;-86
2024/02/04 06:09:27;;;;;;;3.27;3.00;;;;;;;;;;5111298;28;20284;-83
2024/02/04 06:11:53;;;;;;;3.33;3.00;;;;;;;;;;5107785;28;20647;-84
2024/02/04 06:14:20;;;;;;;3.93;3.20;;;;;;;;;;5103238;28;20253;-85
2024/02/04 06:16:47;;;;;;;3.43;2.90;;;;;;;;;;5107958;28;20200;-84
2024/02/04 06:19:14;;;;;;;2.87;2.67;;;;;;;;;;5086890;28;20204;-86
2024/02/04 06:21:41;;;;;;;5.57;3.77;;;;;;;;;;5074689;28;20214;-84
2024/02/04 06:24:10;;;;;;;3.10;2.90;;;;;;;;;;5096721;28;20219;-85
2024/02/04 06:26:39;;;;;;;4.23;3.90;;;;;;;;;;5094971;28;20204;-84
2024/02/04 06:29:06;;;;;;;4.10;3.70;;;;;;;;;;5114276;28;20671;-85
2024/02/04 06:31:33;;;;;;;3.27;2.97;;;;;;;;;;5101866;28;20239;-84
2024/02/04 06:34:01;;;;;;;6.00;3.90;;;;;;;;;;5105731;28;20901;-82
2024/02/04 06:36:28;;;;;;;6.53;4.10;;;;;;;;;;5110354;28;20239;-84
2024/02/04 06:38:55;;;;;;;2.83;2.63;;;;;;;;;;5103723;28;20207;-83
2024/02/04 06:41:23;;;;;;;3.70;2.80;;;;;;;;;;5079276;28;20288;-83
2024/02/04 06:43:50;;;;;;;1.80;1.70;;;;;;;;;;5115082;28;20214;-82
2024/02/04 06:46:25;;;;;;;2.93;2.73;;;;;;;;;;5085429;28;20217;-82
2024/02/04 06:48:52;;;;;;;4.47;3.50;;;;;;;;;;5100666;28;20203;-83
2024/02/04 06:51:19;;;;;;;5.37;4.90;;;;;;;;;;5076585;28;20200;-83
2024/02/04 06:53:45;;;;;;;4.10;3.70;;;;;;;;;;5101947;28;20260;-83
2024/02/04 06:56:12;;;;;;;2.60;2.40;;;;;;;;;;5114293;28;20674;-83
2024/02/04 06:58:41;;;;;;;7.17;6.47;;;;;;;;;;5114340;28;20216;-83
2024/02/04 07:01:07;;;;;;;6.07;5.57;;;;;;;;;;5110234;28;20207;-84
2024/02/04 07:03:34;;;;;;;7.53;6.80;;;;;;;;;;5114467;28;20207;-84
2024/02/04 07:06:01;;;;;;;4.40;4.00;;;;;;;;;;5114363;28;20214;-84
2024/02/04 07:08:28;;;;;;;4.70;3.40;;;;;;;;;;5104612;28;20212;-83
2024/02/04 07:10:55;;;;;;;2.83;2.63;;;;;;;;;;5112085;28;20231;-90
2024/02/04 07:13:22;;;;;;;6.37;5.80;;;;;;;;;;5114420;28;20208;-85
2024/02/04 07:15:50;;;;;;;7.27;6.53;;;;;;;;;;5101625;28;20673;-88
2024/02/04 07:18:21;;;;;;;5.13;4.63;;;;;;;;;;5115824;28;20211;-89
2024/02/04 07:20:48;;;;;;;4.13;3.73;;;;;;;;;;5115143;28;20254;-88
2024/02/04 07:23:15;;;;;;;3.30;3.00;;;;;;;;;;5104852;28;20204;-87
2024/02/04 07:25:42;;;;;;;2.50;2.30;;;;;;;;;;5108669;28;20208;-87
2024/02/04 07:28:09;;;;;;;2.70;2.50;;;;;;;;;;5105809;28;20207;-88
2024/02/04 07:30:36;;;;;;;2.50;2.30;;;;;;;;;;5115361;28;20243;-88
2024/02/04 07:33:05;;;;;;;2.70;2.50;;;;;;;;;;5115507;28;20646;-88
2024/02/04 07:35:32;;;;;;;3.43;3.07;;;;;;;;;;5101325;28;20203;-89
2024/02/04 07:38:00;;;;;;;3.47;2.60;;;;;;;;;;5114899;28;20211;-88
2024/02/04 07:40:27;;;;;;;2.63;2.43;;;;;;;;;;5114966;28;20199;-88
2024/02/04 07:42:54;;;;;;;2.87;2.60;;;;;;;;;;5102486;28;20577;-89
2024/02/04 07:45:21;;;;;;;3.57;2.70;;;;;;;;;;5114118;28;20199;-88
2024/02/04 07:47:48;;;;;;;3.50;2.60;;;;;;;;;;5114840;28;20214;-88
2024/02/04 07:50:16;;;;;;;3.10;2.80;;;;;;;;;;5100854;28;20227;-89
2024/02/04 07:52:43;;;;;;;3.20;2.90;;;;;;;;;;5115238;28;20204;-88
2024/02/04 07:55:10;;;;;;;4.40;3.10;;;;;;;;;;5108353;28;20743;-89
2024/02/04 07:57:40;;;;;;;5.60;4.07;;;;;;;;;;5107762;28;20211;-89
2024/02/04 08:00:10;;;;;;;3.37;2.83;;;;;;;;;;5107930;28;20212;-88
2024/02/04 08:02:36;;;;;;;3.97;3.47;;;;;;;;;;5095228;28;20302;-89
2024/02/04 08:05:04;;;;;;;3.40;3.13;;;;;;;;;;5107078;28;20208;-89
2024/02/04 08:07:33;;;;;;;3.07;2.77;;;;;;;;;;5108914;28;20214;-89
2024/02/04 08:10:00;;;;;;;4.63;3.50;;;;;;;;;;5114565;28;20231;-88
2024/02/04 08:12:26;;;;;;;3.57;3.27;;;;;;;;;;5100710;28;20630;-89
2024/02/04 08:14:53;;;;;;;3.40;3.07;;;;;;;;;;5114358;28;20215;-89
2024/02/04 08:17:20;;;;;;;3.43;3.13;;;;;;;;;;5114612;28;20231;-89
2024/02/04 08:19:47;;;;;;;2.80;2.60;;;;;;;;;;5114397;28;20282;-89
2024/02/04 08:22:14;;;;;;;4.37;3.23;;;;;;;;;;5113896;28;20211;-88
2024/02/04 08:24:42;;;;;;;3.07;2.77;;;;;;;;;;5114365;28;20276;-89
2024/02/04 08:27:09;;;;;;;4.33;3.40;;;;;;;;;;5111560;28;20214;-89
2024/02/04 08:29:35;;;;;;;4.80;4.10;;;;;;;;;;5093902;28;20242;-88
2024/02/04 08:32:02;;;;;;;3.83;3.10;;;;;;;;;;5110466;28;20230;-88
2024/02/04 08:34:29;;;;;;;4.40;3.10;;;;;;;;;;5114066;28;20206;-89
2024/02/04 08:36:56;;;;;;;2.70;2.43;;;;;;;;;;5114057;28;20245;-88
2024/02/04 08:39:23;;;;;;;3.30;2.50;;;;;;;;;;5114368;28;20203;-88
2024/02/04 08:41:51;;;;;;;2.20;2.00;;;;;;;;;;5096913;28;20637;-89
2024/02/04 08:44:18;;;;;;;2.97;2.77;;;;;;;;;;5104406;28;20591;-89
2024/02/04 08:46:45;;;;;;;2.73;2.53;;;;;;;;;;5100554;28;20200;-89
2024/02/04 08:49:12;;;;;;;2.20;2.00;;;;;;;;;;5113647;28;20584;-89
2024/02/04 08:51:39;;;;;;;1.73;1.63;;;;;;;;;;5111864;28;20701;-88
2024/02/04 08:54:05;;;;;;;2.50;2.30;;;;;;;;;;5113032;28;20215;-89
2024/02/04 08:56:33;;;;;;;2.10;1.90;;;;;;;;;;5100256;28;20200;-88
2024/02/04 08:59:02;;;;;;;2.47;2.23;;;;;;;;;;5113607;28;20207;-89
2024/02/04 09:01:29;;;;;;;3.70;3.37;;;;;;;;;;5108336;28;20211;-89
2024/02/04 09:03:55;;;;;;;4.00;3.40;;;;;;;;;;5093184;28;20204;-90
2024/02/04 09:06:22;;;;;;;2.93;2.73;;;;;;;;;;5112060;28;20207;-89
2024/02/04 09:08:49;;;;;;;3.90;3.27;;;;;;;;;;5113606;28;20276;-89
2024/02/04 09:11:18;;;;;;;4.03;2.10;;;;;;;;;;5093885;28;20754;-88
2024/02/04 09:13:45;;;;;;;4.20;2.97;;;;;;;;;;5105631;28;20214;-88
2024/02/04 09:16:14;;;;;;;2.27;2.10;;;;;;;;;;5113356;28;20203;-89
2024/02/04 09:18:40;;;;;;;3.27;2.80;;;;;;;;;;5113106;28;20208;-89
2024/02/04 09:21:08;;;;;;;2.20;2.00;;;;;;;;;;5113383;28;20220;-88
2024/02/04 09:23:34;;;;;;;1.80;1.70;;;;;;;;;;5099994;28;20262;-89
2024/02/04 09:26:01;;;;;;;3.83;1.53;;;;;;;;;;5092966;28;20671;-89
2024/02/04 09:28:28;;;;;;;1.47;1.37;;;;;;;;;;5106722;28;20219;-89
2024/02/04 09:30:55;;;;;;;1.60;1.50;;;;;;;;;;5099489;28;20235;-89
2024/02/04 09:33:23;;;;;;;1.60;1.50;;;;;;;;;;5113229;28;20275;-90
2024/02/04 09:35:50;;;;;;;1.47;1.37;;;;;;;;;;5112841;28;20650;-89
2024/02/04 09:38:17;;;;;;;1.40;1.30;;;;;;;;;;5111989;28;20210;-89
2024/02/04 09:40:44;;;;;;;3.60;1.93;;;;;;;;;;5092862;28;20208;-89
2024/02/04 09:43:11;;;;;;;3.03;2.50;;;;;;;;;;5106278;28;20204;-89
2024/02/04 09:45:39;;;;;;;3.10;2.13;;;;;;;;;;5100103;28;20226;-90
2024/02/04 09:48:07;;;;;;;2.50;1.93;;;;;;;;;;5099647;28;20216;-89
2024/02/04 09:50:36;;;;;;;2.23;1.97;;;;;;;;;;5112729;28;20227;-89
2024/02/04 09:53:04;;;;;;;2.67;2.23;;;;;;;;;;5112779;28;20207;-90
2024/02/04 09:55:32;;;;;;;2.70;2.10;;;;;;;;;;5103952;28;20215;-90
2024/02/04 09:58:03;;;;;;;1.47;1.37;;;;;;;;;;5095313;28;20207;-90
2024/02/04 10:00:30;;;;;;;2.07;1.50;;;;;;;;;;5112895;28;20191;-90
2024/02/04 10:02:57;;;;;;;2.30;2.10;;;;;;;;;;5112631;28;20226;-89
2024/02/04 10:05:24;;;;;;;5.17;3.00;;;;;;;;;;5112769;28;20199;-89
2024/02/04 10:07:52;;;;;;;4.97;2.30;;;;;;;;;;5095495;28;20204;-89
2024/02/04 10:10:19;;;;;;;3.10;2.60;;;;;;;;;;5103131;28;20227;-89
2024/02/04 10:12:46;;;;;;;3.27;3.00;;;;;;;;;;5112639;28;20200;-89
2024/02/04 10:15:13;;;;;;;4.60;3.43;;;;;;;;;;5101258;28;20693;-89
2024/02/04 10:17:43;;;;;;;2.70;2.17;;;;;;;;;;5110786;28;20203;-88
2024/02/04 10:20:12;;;;;;;1.90;1.80;;;;;;;;;;5112625;28;20272;-89
2024/02/04 10:22:39;;;;;;;1.80;1.70;;;;;;;;;;5106836;28;20769;-89
2024/02/04 10:25:12;;;;;;;3.03;2.07;;;;;;;;;;5092261;28;20215;-89
2024/02/04 10:27:39;;;;;;;3.90;2.73;;;;;;;;;;5105762;28;20273;-89
2024/02/04 10:30:07;;;;;;;1.90;1.80;;;;;;;;;;5104824;28;20303;-89
2024/02/04 10:32:34;;;;;;;1.50;1.40;;;;;;;;;;5112504;28;20202;-89
2024/02/04 10:35:02;;;;;;;3.23;2.93;;;;;;;;;;5112477;28;20203;-89
2024/02/04 10:37:29;;;;;;;4.17;3.80;;;;;;;;;;5113135;28;20478;-89
2024/02/04 10:39:55;;;;;;;2.60;2.40;;;;;;;;;;5112769;28;20207;-88
2024/02/04 10:42:27;;;;;;;2.20;1.90;;;;;;;;;;5112671;28;20243;-89
2024/02/04 10:44:55;;;;;;;1.87;1.67;;;;;;;;;;5099138;28;20215;-88
2024/02/04 10:47:24;;;;;;;1.80;1.70;;;;;;;;;;5112777;28;20658;-89
2024/02/04 10:49:53;;;;;;;2.00;1.90;;;;;;;;;;5116106;28;20207;-89
2024/02/04 10:52:20;;;;;;;2.70;2.50;;;;;;;;;;5115257;28;20227;-88
2024/02/04 10:54:47;;;;;;;1.63;1.53;;;;;;;;;;5115759;28;20290;-89
2024/02/04 10:57:18;;;;;;;3.67;1.80;;;;;;;;;;5106462;28;20639;-89
2024/02/04 10:59:48;;;;;;;2.03;1.83;;;;;;;;;;5112760;28;20211;-89
2024/02/04 11:02:17;;;;;;;1.73;1.63;;;;;;;;;;5116229;28;20207;-89
2024/02/04 11:04:44;;;;;;;2.10;1.90;;;;;;;;;;5115903;28;20209;-89
2024/02/04 11:07:12;;;;;;;2.20;2.00;;;;;;;;;;5116168;28;20203;-89
2024/02/04 11:09:39;;;;;;;1.77;1.67;;;;;;;;;;5115446;28;20286;-89
2024/02/04 11:12:10;;;;;;;1.63;1.53;;;;;;;;;;5115929;28;20227;-89
2024/02/04 11:14:38;;;;;;;1.83;1.73;;;;;;;;;;5102201;28;20218;-89
2024/02/04 11:17:43;;;;;;;2.00;1.80;;;;;;;;;;5115894;28;20230;-89
2024/02/04 11:20:24;;;;;;;2.60;2.40;;;;;;;;;;5102610;28;20212;-89
2024/02/04 11:23:09;;;;;;;1.87;1.77;;;;;;;;;;5114820;28;20200;-90
2024/02/04 11:25:44;;;;;;;1.60;1.50;;;;;;;;;;5112097;28;20731;-89
2024/02/04 11:28:12;;;;;;;1.87;1.77;;;;;;;;;;5094668;28;20210;-89
2024/02/04 11:30:40;;;;;;;2.03;1.87;;;;;;;;;;5113340;28;20227;-89
2024/02/04 11:33:09;;;;;;;2.43;2.23;;;;;;;;;;5115102;28;20207;-89
2024/02/04 11:35:37;;;;;;;1.87;1.77;;;;;;;;;;5115052;28;20200;-89
2024/02/04 11:38:05;;;;;;;2.23;2.03;;;;;;;;;;5115235;28;20206;-89
2024/02/04 11:40:33;;;;;;;1.73;1.63;;;;;;;;;;5115190;28;20254;-89
2024/02/04 11:43:06;;;;;;;1.80;1.70;;;;;;;;;;5115336;28;20215;-89
2024/02/04 11:45:33;;;;;;;4.63;1.80;;;;;;;;;;5102803;28;20207;-89
2024/02/04 11:48:02;;;;;;;3.63;2.00;;;;;;;;;;5114365;28;20214;-89
2024/02/04 11:50:31;;;;;;;6.03;3.60;;;;;;;;;;5103421;28;20200;-89
2024/02/04 11:53:07;;;;;;;5.47;4.83;;;;;;;;;;5115247;28;20243;-89
2024/02/04 11:55:35;;;;;;;3.37;2.63;;;;;;;;;;5104014;28;20273;-90
2024/02/04 11:58:02;;;;;;;2.40;2.20;;;;;;;;;;5098805;28;20203;-90
2024/02/04 12:00:29;;;;;;;2.43;2.23;;;;;;;;;;5114055;28;20202;-89
2024/02/04 12:03:03;;;;;;;2.20;2.00;;;;;;;;;;5114780;28;20192;-89
2024/02/04 12:05:33;;;;;;;2.40;1.93;;;;;;;;;;5115090;28;20212;-89
2024/02/04 12:08:01;;;;;;;3.20;2.57;;;;;;;;;;5101016;28;20210;-89
2024/02/04 12:10:28;;;;;;;2.57;2.07;;;;;;;;;;5114254;28;20203;-89
2024/02/04 12:12:55;;;;;;;1.63;1.53;;;;;;;;;;5113838;28;20208;-89
2024/02/04 12:15:22;;;;;;;2.00;1.80;;;;;;;;;;5114281;28;20243;-88
2024/02/04 12:17:49;;;;;;;1.80;1.70;;;;;;;;;;5094388;28;20582;-89
2024/02/04 12:20:16;;;;;;;1.70;1.60;;;;;;;;;;5107781;28;20235;-90
2024/02/04 12:22:44;;;;;;;2.40;2.20;;;;;;;;;;5100895;28;20233;-89
2024/02/04 12:25:11;;;;;;;2.23;2.03;;;;;;;;;;5114054;28;20253;-89
2024/02/04 12:27:38;;;;;;;1.90;1.80;;;;;;;;;;5113859;28;20203;-90
2024/02/04 12:30:07;;;;;;;3.97;2.87;;;;;;;;;;5114417;28;20313;-91
2024/02/04 12:32:34;;;;;;;2.70;1.73;;;;;;;;;;5114087;28;20312;-89
2024/02/04 12:35:02;;;;;;;2.73;2.10;;;;;;;;;;5114370;28;20244;-88
2024/02/04 12:37:30;;;;;;;1.73;1.40;;;;;;;;;;5114172;28;20208;-89
2024/02/04 12:39:59;;;;;;;1.67;1.53;;;;;;;;;;5113930;28;20207;-89
2024/02/04 12:42:26;;;;;;;1.40;1.30;;;;;;;;;;5113976;28;20191;-89
2024/02/04 12:44:53;;;;;;;1.23;1.13;;;;;;;;;;5113874;28;20211;-89
2024/02/04 12:47:20;;;;;;;1.70;1.60;;;;;;;;;;5106096;28;20268;-89
2024/02/04 12:49:47;;;;;;;0.90;0.90;;;;;;;;;;5108621;28;20195;-89
2024/02/04 12:52:14;;;;;;;1.77;1.67;;;;;;;;;;5113891;28;20228;-89
2024/02/04 12:54:44;;;;;;;2.97;1.43;;;;;;;;;;5112905;28;20642;-90
2024/02/04 12:57:23;;;;;;;1.47;1.37;;;;;;;;;;5084239;28;20195;-89
2024/02/04 12:59:49;;;;;;;1.63;1.53;;;;;;;;;;5113839;28;20290;-88
2024/02/04 13:02:16;;;;;;;1.40;1.30;;;;;;;;;;5113554;28;20756;-89
2024/02/04 13:04:43;;;;;;;1.57;1.37;;;;;;;;;;5099482;28;20199;-89
2024/02/04 13:07:12;;;;;;;1.40;1.30;;;;;;;;;;5113398;28;20258;-90
2024/02/04 13:09:39;;;;;;;1.80;1.40;;;;;;;;;;5095422;28;20204;-90
2024/02/04 13:12:08;;;;;;;1.60;1.50;;;;;;;;;;5092090;28;20224;-89
2024/02/04 13:14:37;;;;;;;1.70;1.60;;;;;;;;;;5111653;28;20674;-89
2024/02/04 13:17:04;;;;;;;1.50;1.40;;;;;;;;;;5100877;28;20200;-89
2024/02/04 13:19:35;;;;;;;2.17;2.07;;;;;;;;;;5106491;28;20266;-88
2024/02/04 13:22:03;;;;;;;3.03;1.60;;;;;;;;;;5106272;28;20210;-89
2024/02/04 13:24:30;;;;;;;2.07;1.87;;;;;;;;;;5113198;28;20230;-89
2024/02/04 13:26:57;;;;;;;1.80;1.70;;;;;;;;;;5099773;28;20208;-89
2024/02/04 13:29:24;;;;;;;2.10;1.60;;;;;;;;;;5113283;28;20199;-89
2024/02/04 13:31:52;;;;;;;2.03;1.87;;;;;;;;;;5112424;28;20233;-89
2024/02/04 13:34:20;;;;;;;1.93;1.83;;;;;;;;;;5113169;28;20195;-89
2024/02/04 13:36:46;;;;;;;1.87;1.77;;;;;;;;;;5110957;28;20254;-89
2024/02/04 13:39:13;;;;;;;1.50;1.40;;;;;;;;;;5101806;28;20210;-89
2024/02/04 13:41:40;;;;;;;1.43;1.40;;;;;;;;;;5112844;28;20234;-90
2024/02/04 13:44:08;;;;;;;1.33;1.27;;;;;;;;;;5103521;28;20211;-89
2024/02/04 13:46:34;;;;;;;1.53;1.43;;;;;;;;;;5109154;28;20203;-89
2024/02/04 13:49:03;;;;;;;1.87;1.30;;;;;;;;;;5112984;28;20212;-89
2024/02/04 13:51:30;;;;;;;1.53;1.43;;;;;;;;;;5112486;28;20248;-89
2024/02/04 13:53:57;;;;;;;2.67;2.20;;;;;;;;;;5112552;28;20689;-88
2024/02/04 13:56:24;;;;;;;2.40;1.60;;;;;;;;;;5113392;28;20275;-89
2024/02/04 13:58:52;;;;;;;2.33;2.13;;;;;;;;;;5102475;28;20658;-89
2024/02/04 14:01:20;;;;;;;2.03;1.83;;;;;;;;;;5092535;28;20200;-89
2024/02/04 14:03:47;;;;;;;2.73;2.50;;;;;;;;;;5104105;28;20199;-90
2024/02/04 14:06:15;;;;;;;3.00;1.77;;;;;;;;;;5099195;28;20633;-90
2024/02/04 14:08:42;;;;;;;2.87;2.40;;;;;;;;;;5111783;28;20635;-90
2024/02/04 14:11:09;;;;;;;4.10;3.07;;;;;;;;;;5093938;28;20261;-89
2024/02/04 14:13:36;;;;;;;7.97;5.83;;;;;;;;;;5104847;28;20218;-89
2024/02/04 14:16:03;;;;;;;7.97;5.97;;;;;;;;;;5093708;28;20216;-89
2024/02/04 14:18:30;;;;;;;2.70;2.50;;;;;;;;;;5105223;28;20207;-89
2024/02/04 14:20:57;;;;;;;4.07;3.67;;;;;;;;;;5112764;28;20203;-89
2024/02/04 14:23:25;;;;;;;5.00;4.50;;;;;;;;;;5096536;28;20206;-89
2024/02/04 14:25:52;;;;;;;3.03;2.70;;;;;;;;;;5111268;28;20215;-89
2024/02/04 14:28:21;;;;;;;3.43;2.87;;;;;;;;;;5109217;28;20719;-89
2024/02/04 14:30:48;;;;;;;2.53;2.20;;;;;;;;;;5116330;28;20231;-89
2024/02/04 14:33:15;;;;;;;3.23;2.27;;;;;;;;;;5116314;28;20627;-89
2024/02/04 14:35:42;;;;;;;3.07;2.53;;;;;;;;;;5116622;28;20673;-89
2024/02/04 14:38:08;;;;;;;2.30;2.10;;;;;;;;;;5116893;28;20214;-88
2024/02/04 14:40:37;;;;;;;2.47;2.10;;;;;;;;;;5102351;28;20253;-88
2024/02/04 14:43:04;;;;;;;4.13;3.73;;;;;;;;;;5115662;28;20686;-88